createdAt,value
2022-09-24T00:00:09.850Z,4.72
2022-09-24T00:46:52.090Z,5.13
2022-09-24T00:49:21.382Z,4.35
2022-09-24T00:51:53.373Z,4.22
2022-09-24T00:54:26.605Z,4.18
2022-09-24T00:56:56.629Z,4.45
2022-09-24T00:59:26.508Z,4.40
2022-09-24T01:46:19.906Z,4.00
2022-09-24T01:48:48.316Z,4.00
2022-09-24T01:51:23.125Z,4.25
2022-09-24T01:53:56.935Z,3.83
2022-09-24T01:56:31.839Z,3.92
2022-09-24T01:59:03.992Z,3.95
2022-09-24T02:45:26.445Z,3.83
2022-09-24T02:47:54.563Z,3.70
2022-09-24T02:50:22.695Z,3.75
2022-09-24T02:52:50.783Z,3.80
2022-09-24T02:55:18.956Z,3.95
2022-09-24T02:57:48.072Z,3.33
2022-09-24T03:00:17.632Z,3.58
2022-09-24T03:47:07.571Z,3.70
2022-09-24T03:49:35.984Z,3.47
2022-09-24T03:52:04.344Z,3.67
2022-09-24T03:54:33.104Z,3.30
2022-09-24T03:57:01.506Z,3.42
2022-09-24T03:59:29.704Z,3.42
2022-09-24T04:01:58.215Z,3.63
2022-09-24T04:04:28.645Z,3.58
2022-09-24T04:06:57.193Z,3.45
2022-09-24T04:09:26.111Z,3.20
2022-09-24T04:11:54.448Z,3.33
2022-09-24T04:14:23.194Z,3.08
2022-09-24T04:32:39.580Z,3.17
2022-09-24T04:35:09.420Z,3.15
2022-09-24T04:37:38.648Z,3.00
2022-09-24T04:40:12.547Z,3.70
2022-09-24T04:42:41.557Z,3.03
2022-09-24T04:45:16.809Z,3.00
2022-09-24T04:47:47.838Z,3.35
2022-09-24T04:50:16.508Z,3.22
2022-09-24T04:52:44.765Z,3.28
2022-09-24T04:55:13.531Z,3.20
2022-09-24T04:57:42.309Z,3.30
2022-09-24T05:00:17.713Z,2.92
2022-09-24T05:02:47.944Z,2.78
2022-09-24T05:05:16.761Z,3.00
2022-09-24T05:07:45.003Z,2.97
2022-09-24T05:10:13.357Z,3.17
2022-09-24T05:12:41.963Z,2.90
2022-09-24T05:15:12.567Z,3.05
2022-09-24T05:17:40.966Z,3.40
2022-09-24T05:20:11.647Z,2.90
2022-09-24T05:22:42.905Z,3.15
2022-09-24T05:25:12.097Z,3.20
2022-09-24T05:27:44.826Z,3.20
2022-09-24T05:30:14.770Z,3.28
2022-09-24T05:32:43.017Z,3.20
2022-09-24T05:35:13.672Z,3.10
2022-09-24T05:37:42.757Z,3.10
2022-09-24T05:40:29.235Z,3.47
2022-09-24T05:43:02.385Z,3.50
2022-09-24T05:45:30.758Z,2.80
2022-09-24T05:48:00.250Z,3.22
2022-09-24T05:50:30.061Z,3.13
2022-09-24T05:52:58.509Z,3.03
2022-09-24T05:55:31.460Z,3.20
2022-09-24T05:58:07.729Z,2.70
2022-09-24T06:00:36.969Z,3.40
2022-09-24T06:03:07.948Z,3.20
2022-09-24T06:05:37.741Z,3.10
2022-09-24T06:08:08.650Z,3.05
2022-09-24T06:10:37.589Z,3.03
2022-09-24T06:13:06.162Z,3.00
2022-09-24T06:15:35.022Z,2.85
2022-09-24T06:18:03.150Z,3.20
2022-09-24T06:20:31.368Z,3.00
2022-09-24T06:23:02.348Z,3.08
2022-09-24T06:25:32.059Z,3.30
2022-09-24T06:28:02.176Z,3.05
2022-09-24T06:30:33.973Z,2.65
2022-09-24T06:33:06.408Z,2.95
2022-09-24T06:35:36.335Z,2.85
2022-09-24T06:38:07.198Z,3.08
2022-09-24T06:40:37.478Z,3.00
2022-09-24T06:43:06.682Z,2.88
2022-09-24T06:45:35.439Z,3.17
2022-09-24T06:48:06.048Z,3.03
2022-09-24T06:50:36.413Z,3.00
2022-09-24T06:53:09.884Z,2.70
2022-09-24T06:55:39.257Z,2.97
2022-09-24T06:58:09.557Z,3.40
2022-09-24T07:00:39.692Z,3.88
2022-09-24T07:03:08.642Z,4.65
2022-09-24T07:05:42.536Z,5.63
2022-09-24T07:08:12.917Z,4.30
2022-09-24T07:10:45.135Z,4.68
2022-09-24T07:13:14.606Z,4.82
2022-09-24T07:15:43.333Z,5.03
2022-09-24T07:18:12.077Z,4.70
2022-09-24T07:20:40.934Z,4.78
2022-09-24T07:33:48.306Z,5.80
2022-09-24T07:36:19.050Z,5.57
2022-09-24T07:38:47.597Z,4.95
2022-09-24T07:41:16.011Z,4.90
2022-09-24T07:43:44.226Z,4.75
2022-09-24T07:46:12.420Z,4.97
2022-09-24T07:48:40.533Z,4.70
2022-09-24T07:51:11.481Z,4.60
2022-09-24T07:53:41.099Z,5.32
2022-09-24T07:56:09.514Z,4.90
2022-09-24T07:58:38.020Z,4.78
2022-09-24T08:01:06.689Z,4.88
2022-09-24T08:03:41.160Z,4.88
2022-09-24T08:06:09.622Z,4.90
2022-09-24T08:08:38.918Z,4.57
2022-09-24T08:11:10.733Z,4.75
2022-09-24T08:13:39.154Z,4.57
2022-09-24T08:16:07.750Z,4.90
2022-09-24T08:18:36.309Z,5.00
2022-09-24T08:21:07.118Z,4.80
2022-09-24T08:23:36.310Z,4.88
2022-09-24T08:26:04.986Z,6.93
2022-09-24T08:28:35.548Z,5.65
2022-09-24T08:31:08.920Z,5.18
2022-09-24T08:33:38.802Z,5.53
2022-09-24T08:36:09.520Z,5.43
2022-09-24T08:38:37.745Z,5.15
2022-09-24T08:41:27.099Z,5.47
2022-09-24T08:44:04.192Z,4.95
2022-09-24T08:47:01.607Z,5.05
2022-09-24T08:49:37.616Z,6.53
2022-09-24T08:52:21.588Z,6.28
2022-09-24T08:54:52.088Z,5.97
2022-09-24T08:57:23.260Z,6.13
2022-09-24T08:59:54.583Z,5.63
2022-09-24T09:02:42.333Z,5.63
2022-09-24T09:05:24.981Z,5.95
2022-09-24T09:08:02.817Z,5.55
2022-09-24T09:10:36.622Z,5.07
2022-09-24T09:13:14.017Z,4.85
2022-09-24T09:15:48.622Z,4.95
2022-09-24T09:18:22.829Z,4.75
2022-09-24T09:20:51.661Z,4.57
2022-09-24T09:23:22.718Z,5.00
2022-09-24T09:25:57.174Z,4.68
2022-09-24T09:28:28.033Z,4.75
2022-09-24T09:31:12.199Z,4.30
2022-09-24T09:33:59.874Z,5.30
2022-09-24T09:36:49.457Z,9.10
2022-09-24T09:39:37.287Z,4.80
2022-09-24T09:42:25.054Z,4.75
2022-09-24T09:44:54.114Z,4.85
2022-09-24T09:47:36.215Z,4.88
2022-09-24T09:50:14.907Z,5.03
2022-09-24T09:52:42.971Z,5.90
2022-09-24T09:55:23.657Z,4.70
2022-09-24T09:57:53.214Z,4.47
2022-09-24T10:00:34.357Z,5.22
2022-09-24T10:03:04.625Z,5.60
2022-09-24T10:05:33.090Z,4.88
2022-09-24T10:08:01.254Z,4.40
2022-09-24T10:10:30.271Z,4.75
2022-09-24T10:13:10.773Z,4.85
2022-09-24T10:15:50.001Z,5.80
2022-09-24T10:18:32.724Z,5.22
2022-09-24T10:21:04.479Z,5.40
2022-09-24T10:23:37.578Z,5.55
2022-09-24T10:26:08.194Z,5.38
2022-09-24T10:28:58.481Z,4.97
2022-09-24T10:31:30.608Z,5.57
2022-09-24T10:34:01.615Z,4.95
2022-09-24T10:36:32.509Z,4.80
2022-09-24T10:39:06.089Z,5.28
2022-09-24T10:41:34.419Z,5.03
2022-09-24T10:44:07.425Z,5.38
2022-09-24T10:47:00.644Z,5.28
2022-09-24T10:49:50.126Z,4.82
2022-09-24T10:52:39.673Z,4.95
2022-09-24T10:55:24.903Z,5.30
2022-09-24T10:58:05.486Z,5.28
2022-09-24T11:00:41.242Z,5.05
2022-09-24T11:04:20.935Z,5.07
2022-09-24T11:07:28.156Z,4.32
2022-09-24T11:10:05.398Z,4.63
2022-09-24T11:12:45.252Z,5.75
2022-09-24T11:15:29.780Z,5.05
2022-09-24T11:18:23.279Z,4.88
2022-09-24T11:21:00.746Z,4.70
2022-09-24T11:23:57.524Z,5.00
2022-09-24T11:26:37.940Z,4.60
2022-09-24T11:29:26.022Z,4.30
2022-09-24T11:32:06.907Z,4.70
2022-09-24T11:34:59.740Z,4.32
2022-09-24T11:37:42.171Z,4.50
2022-09-24T11:40:47.636Z,4.40
2022-09-24T11:43:41.102Z,4.65
2022-09-24T11:46:26.351Z,4.70
2022-09-24T11:49:16.664Z,4.55
2022-09-24T11:51:55.284Z,4.50
2022-09-24T11:54:30.926Z,4.20
2022-09-24T11:57:10.629Z,4.47
2022-09-24T11:59:46.504Z,4.43
2022-09-24T12:02:21.238Z,4.57
2022-09-24T12:05:00.528Z,4.13
2022-09-24T12:07:38.044Z,3.92
2022-09-24T12:10:25.063Z,4.35
2022-09-24T12:13:02.453Z,4.05
2022-09-24T12:15:42.151Z,4.03
2022-09-24T12:18:17.370Z,3.60
2022-09-24T12:20:50.923Z,4.47
2022-09-24T12:23:27.860Z,3.80
2022-09-24T12:25:58.557Z,4.30
2022-09-24T12:28:54.297Z,4.30
2022-09-24T12:31:49.548Z,3.92
2022-09-24T12:34:27.829Z,3.90
2022-09-24T12:37:03.683Z,3.97
2022-09-24T12:39:39.651Z,3.78
2022-09-24T12:42:10.830Z,4.13
2022-09-24T12:44:46.099Z,4.10
2022-09-24T12:47:21.755Z,4.20
2022-09-24T12:49:55.680Z,3.92
2022-09-24T12:52:33.865Z,3.88
2022-09-24T12:55:05.088Z,3.92
2022-09-24T12:57:36.856Z,4.10
2022-09-24T13:00:35.049Z,3.92
2022-09-24T13:03:06.344Z,4.00
2022-09-24T13:05:48.542Z,3.83
2022-09-24T13:08:28.317Z,3.65
2022-09-24T13:11:00.525Z,3.80
2022-09-24T13:13:31.890Z,3.90
2022-09-24T13:16:05.404Z,3.40
2022-09-24T13:18:37.047Z,3.83
2022-09-24T13:21:08.175Z,3.83
2022-09-24T13:23:48.541Z,3.38
2022-09-24T13:26:34.694Z,3.50
2022-09-24T13:29:06.158Z,3.60
2022-09-24T13:31:47.593Z,3.63
2022-09-24T13:34:21.634Z,3.60
2022-09-24T13:36:58.502Z,3.70
2022-09-24T13:39:34.932Z,3.35
2022-09-24T13:42:15.907Z,3.30
2022-09-24T13:44:48.281Z,3.88
2022-09-24T13:47:27.575Z,3.78
2022-09-24T13:50:04.638Z,3.60
2022-09-24T13:52:37.648Z,3.72
2022-09-24T13:55:17.256Z,3.35
2022-09-24T13:57:46.461Z,3.50
2022-09-24T14:00:19.930Z,3.42
2022-09-24T14:03:02.306Z,3.42
2022-09-24T14:05:35.507Z,4.00
2022-09-24T14:08:08.585Z,3.45
2022-09-24T14:10:37.456Z,3.90
2022-09-24T14:13:19.098Z,3.38
2022-09-24T14:15:58.769Z,3.60
2022-09-24T14:18:29.997Z,3.42
2022-09-24T14:21:06.097Z,3.63
2022-09-24T14:23:41.717Z,3.63
2022-09-24T14:26:14.955Z,3.53
2022-09-24T14:28:43.596Z,3.47
2022-09-24T14:31:12.205Z,3.35
2022-09-24T14:33:42.739Z,3.60
2022-09-24T14:36:15.122Z,3.38
2022-09-24T14:38:53.952Z,3.42
2022-09-24T14:41:26.796Z,3.13
2022-09-24T14:43:59.419Z,3.05
2022-09-24T14:46:32.355Z,3.10
2022-09-24T14:49:21.615Z,3.58
2022-09-24T14:51:55.728Z,3.17
2022-09-24T14:54:32.971Z,3.85
2022-09-24T14:57:13.063Z,3.20
2022-09-24T14:59:42.789Z,3.47
2022-09-24T15:02:20.115Z,3.47
2022-09-24T15:04:53.542Z,3.20
2022-09-24T15:07:25.945Z,3.40
2022-09-24T15:09:57.451Z,3.15
2022-09-24T15:12:31.195Z,3.10
2022-09-24T15:15:02.634Z,3.00
2022-09-24T15:17:32.953Z,3.30
2022-09-24T15:20:04.995Z,3.28
2022-09-24T15:22:33.373Z,3.60
2022-09-24T15:25:02.631Z,2.95
2022-09-24T15:27:33.187Z,3.05
2022-09-24T15:30:04.649Z,3.10
2022-09-24T15:32:35.944Z,3.38
2022-09-24T15:35:09.327Z,3.25
2022-09-24T15:37:40.964Z,3.30
2022-09-24T15:40:20.554Z,3.30
2022-09-24T15:42:49.327Z,3.10
2022-09-24T15:45:21.471Z,3.17
2022-09-24T15:47:50.241Z,2.95
2022-09-24T15:50:20.599Z,3.03
2022-09-24T15:53:01.397Z,3.20
2022-09-24T15:55:30.955Z,3.00
2022-09-24T15:58:01.919Z,3.38
2022-09-24T16:00:30.362Z,3.13
2022-09-24T16:03:00.195Z,3.00
2022-09-24T16:05:30.271Z,2.72
2022-09-24T16:07:59.419Z,3.20
2022-09-24T16:10:28.171Z,3.13
2022-09-24T16:12:56.759Z,3.00
2022-09-24T16:15:25.079Z,3.00
2022-09-24T16:17:53.416Z,2.90
2022-09-24T16:20:22.133Z,2.90
2022-09-24T16:22:52.159Z,2.80
2022-09-24T16:25:20.335Z,3.05
2022-09-24T16:27:51.034Z,3.40
2022-09-24T16:30:19.699Z,3.78
2022-09-24T16:32:47.944Z,3.83
2022-09-24T16:35:16.384Z,3.75
2022-09-24T16:37:45.038Z,3.70
2022-09-24T16:40:16.090Z,3.55
2022-09-24T16:42:44.580Z,3.22
2022-09-24T16:45:14.141Z,3.40
2022-09-24T16:47:42.495Z,3.38
2022-09-24T16:50:11.431Z,3.53
2022-09-24T16:52:40.122Z,3.08
2022-09-24T16:55:10.021Z,3.20
2022-09-24T16:57:39.756Z,3.42
2022-09-24T17:00:10.515Z,3.38
2022-09-24T17:02:38.781Z,3.05
2022-09-24T17:05:08.887Z,3.20
2022-09-24T17:07:37.208Z,3.20
2022-09-24T17:10:15.859Z,4.05
2022-09-24T17:12:49.287Z,27.75
2022-09-24T17:15:20.694Z,11.00
2022-09-24T17:17:51.094Z,7.70
2022-09-24T17:20:20.586Z,6.90
2022-09-24T17:22:49.819Z,26.55
2022-09-24T17:25:18.533Z,55.65
2022-09-24T17:27:48.266Z,131.73
2022-09-24T17:30:17.123Z,368.27
2022-09-24T17:32:46.098Z,281.52
2022-09-24T17:35:14.889Z,161.85
2022-09-24T17:37:44.239Z,171.10
2022-09-24T17:40:13.353Z,224.82
2022-09-24T17:42:46.990Z,636.38
2022-09-24T17:45:16.949Z,598.97
2022-09-24T17:48:02.555Z,520.33
2022-09-24T17:50:32.467Z,469.48
2022-09-24T17:53:03.740Z,426.38
2022-09-24T17:55:32.096Z,330.52
2022-09-24T17:58:00.878Z,258.33
2022-09-24T18:00:35.783Z,157.23
2022-09-24T18:03:04.496Z,148.77
2022-09-24T18:05:33.152Z,123.93
2022-09-24T18:08:01.710Z,112.30
2022-09-24T18:10:31.260Z,103.95
2022-09-24T18:13:00.483Z,98.95
2022-09-24T18:15:31.358Z,95.95
2022-09-24T18:18:00.821Z,88.50
2022-09-24T18:20:31.845Z,86.00
2022-09-24T18:23:00.487Z,74.75
2022-09-24T18:25:28.951Z,72.75
2022-09-24T18:28:00.994Z,61.53
2022-09-24T18:30:31.561Z,51.30
2022-09-24T18:33:01.235Z,49.53
2022-09-24T18:35:30.903Z,47.38
2022-09-24T18:38:00.521Z,44.13
2022-09-24T18:40:29.389Z,43.05
2022-09-24T18:42:58.744Z,40.60
2022-09-24T18:45:28.628Z,38.80
2022-09-24T18:47:59.326Z,37.10
2022-09-24T18:50:28.266Z,34.78
2022-09-24T18:52:56.744Z,33.83
2022-09-24T18:55:25.446Z,34.03
2022-09-24T18:57:53.917Z,32.80
2022-09-24T19:00:40.056Z,30.48
2022-09-24T19:03:09.901Z,27.95
2022-09-24T19:05:38.641Z,27.65
2022-09-24T19:08:07.665Z,28.02
2022-09-24T19:10:36.073Z,28.13
2022-09-24T19:13:06.713Z,27.02
2022-09-24T19:15:38.772Z,27.05
2022-09-24T19:18:10.398Z,27.30
2022-09-24T19:20:39.111Z,26.05
2022-09-24T19:23:08.521Z,24.75
2022-09-24T19:25:40.196Z,23.83
2022-09-24T19:28:12.250Z,23.00
2022-09-24T19:30:42.102Z,22.95
2022-09-24T19:33:13.532Z,23.48
2022-09-24T19:35:42.152Z,22.85
2022-09-24T19:38:10.548Z,23.02
2022-09-24T19:40:39.317Z,23.88
2022-09-24T19:43:08.034Z,22.52
2022-09-24T19:45:37.244Z,22.67
2022-09-24T19:48:06.025Z,21.33
2022-09-24T19:50:38.398Z,22.58
2022-09-24T19:53:07.080Z,20.65
2022-09-24T19:55:36.958Z,21.52
2022-09-24T19:58:05.358Z,20.48
2022-09-24T20:00:33.683Z,20.05
2022-09-24T20:03:03.034Z,20.10
2022-09-24T20:05:31.863Z,20.23
2022-09-24T20:08:01.820Z,20.48
2022-09-24T20:10:31.677Z,18.98
2022-09-24T20:12:59.953Z,19.20
2022-09-24T20:15:29.406Z,18.38
2022-09-24T20:17:57.866Z,18.65
2022-09-24T20:20:26.587Z,19.27
2022-09-24T20:22:55.304Z,17.92
2022-09-24T20:25:45.006Z,17.90
2022-09-24T20:28:15.698Z,16.25
2022-09-24T20:30:44.785Z,17.20
2022-09-24T20:33:13.807Z,16.45
2022-09-24T20:35:43.137Z,16.42
2022-09-24T20:38:12.164Z,16.55
2022-09-24T20:40:42.728Z,16.55
2022-09-24T20:43:11.060Z,26.10
2022-09-24T20:45:42.249Z,23.45
2022-09-24T20:48:11.353Z,29.25
2022-09-24T20:50:39.626Z,28.27
2022-09-24T20:53:07.898Z,29.05
2022-09-24T20:55:36.446Z,29.50
2022-09-24T20:58:06.479Z,29.42
2022-09-24T21:00:37.649Z,29.30
2022-09-24T21:03:25.501Z,29.90
2022-09-24T21:05:59.935Z,28.90
2022-09-24T21:08:29.004Z,27.50
2022-09-24T21:11:02.666Z,29.00
2022-09-24T21:13:33.773Z,28.80
2022-09-24T21:16:04.441Z,28.50
2022-09-24T21:18:40.096Z,28.75
2022-09-24T21:21:11.608Z,28.83
2022-09-24T21:23:40.323Z,29.02
2022-09-24T21:26:13.697Z,28.90
2022-09-24T21:28:44.263Z,28.23
2022-09-24T21:31:12.503Z,27.38
2022-09-24T21:33:40.858Z,28.20
2022-09-24T21:36:12.028Z,28.85
2022-09-24T21:38:40.353Z,28.00
2022-09-24T21:41:08.971Z,34.22
2022-09-24T21:43:38.138Z,36.03
2022-09-24T21:46:08.961Z,35.30
2022-09-24T21:48:37.351Z,35.08
2022-09-24T21:51:08.559Z,40.00
2022-09-24T21:53:38.223Z,39.25
2022-09-24T21:56:07.995Z,40.78
2022-09-24T21:58:37.110Z,41.78
2022-09-24T22:01:16.193Z,44.00
2022-09-24T22:03:46.708Z,45.15
2022-09-24T22:06:15.786Z,44.97
2022-09-24T22:08:47.562Z,45.13
2022-09-24T22:11:18.791Z,46.17
2022-09-24T22:13:47.860Z,46.53
2022-09-24T22:16:17.833Z,46.38
2022-09-24T22:18:46.111Z,46.40
2022-09-24T22:21:16.487Z,48.10
2022-09-24T22:23:44.797Z,48.72
2022-09-24T22:26:14.833Z,48.42
2022-09-24T22:28:44.010Z,49.22
2022-09-24T22:31:15.823Z,49.22
2022-09-24T22:34:04.007Z,48.13
2022-09-24T22:36:34.134Z,48.85
2022-09-24T22:39:03.917Z,49.97
2022-09-24T22:41:32.981Z,50.95
2022-09-24T22:44:01.289Z,49.15
2022-09-24T22:46:29.869Z,49.40
2022-09-24T22:48:59.708Z,48.65
2022-09-24T22:51:28.657Z,48.33
2022-09-24T22:53:57.231Z,49.75
2022-09-24T22:56:27.924Z,50.05
2022-09-24T22:58:58.847Z,50.85
2022-09-24T23:46:51.480Z,49.33
2022-09-24T23:49:19.922Z,47.83
2022-09-24T23:51:48.128Z,48.70
2022-09-24T23:54:16.417Z,47.70
2022-09-24T23:56:44.588Z,47.53
2022-09-24T23:59:13.385Z,47.38
